Terminal Aerodrome Forecast
Issued by NWS

Home | Current Version | Previous Version | Text Only | Print | Product List | Glossary On
Versions: 1 2 3 4 5 6 7 8 9 10 11 12 13 14 15
000
FTUS42 KMLB 170500 RRA
TAFSFB
TAF
KSFB 170541Z 1706/1806 02006KT P6SM SCT040
     FM171300 03011KT P6SM SCT040
     FM171600 06014G22KT P6SM SCT035 BKN050
     FM172300 04010KT P6SM VCSH BKN040=

USA.gov is the U.S. government's official web portal to all federal, state and local government web resources and services.